createdAt,value
2017-11-08T00:00:50.987Z,96681.12
2017-11-08T00:03:17.122Z,96676.64
2017-11-08T00:05:43.206Z,96685.78
2017-11-08T00:08:09.334Z,96686.95
2017-11-08T00:10:35.426Z,96687.74
2017-11-08T00:13:01.523Z,96693.34
2017-11-08T00:15:27.635Z,96694.71
2017-11-08T00:17:53.705Z,96682.35
2017-11-08T00:20:19.795Z,96693.81
2017-11-08T00:22:45.851Z,96698.30
2017-11-08T00:25:12.251Z,96689.83
2017-11-08T00:27:38.394Z,96696.06
2017-11-08T00:30:04.616Z,96699.95
2017-11-08T00:32:30.742Z,96710.33
2017-11-08T00:34:56.838Z,96704.17
2017-11-08T00:37:22.921Z,96699.90
2017-11-08T00:39:49.042Z,96716.34
2017-11-08T00:42:15.162Z,96712.98
2017-11-08T00:44:41.226Z,96718.34
2017-11-08T00:47:07.385Z,96726.80
2017-11-08T00:49:34.332Z,96731.11
2017-11-08T00:52:00.406Z,96717.70
2017-11-08T00:54:26.913Z,96719.98
2017-11-08T00:56:55.966Z,96722.09
2017-11-08T00:59:22.070Z,96727.73
2017-11-08T01:01:48.167Z,96723.47
2017-11-08T01:04:14.246Z,96729.35
2017-11-08T01:06:40.206Z,96731.53
2017-11-08T01:09:06.450Z,96721.31
2017-11-08T01:11:32.586Z,96707.34
2017-11-08T01:13:58.758Z,96701.08
2017-11-08T01:16:24.842Z,96698.10
2017-11-08T01:18:50.987Z,96687.75
2017-11-08T01:21:17.097Z,96675.80
2017-11-08T01:23:43.186Z,96672.75
2017-11-08T01:26:09.323Z,96678.20
2017-11-08T01:28:35.479Z,96680.34
2017-11-08T01:31:01.558Z,96672.75
2017-11-08T01:33:27.654Z,96673.36
2017-11-08T01:35:53.751Z,96673.94
2017-11-08T01:38:19.801Z,96675.91
2017-11-08T01:40:48.043Z,96672.59
2017-11-08T01:43:14.113Z,96671.66
2017-11-08T01:45:41.119Z,96675.93
2017-11-08T01:48:08.435Z,96677.22
2017-11-08T01:50:34.530Z,96683.79
2017-11-08T01:53:00.645Z,96681.63
2017-11-08T01:55:26.720Z,96680.32
2017-11-08T01:57:52.773Z,96685.67
2017-11-08T02:00:18.799Z,96683.94
2017-11-08T02:02:44.894Z,96683.49
2017-11-08T02:05:11.022Z,96680.86
2017-11-08T02:07:37.163Z,96685.34
2017-11-08T02:10:03.339Z,96679.79
2017-11-08T02:12:29.460Z,96674.38
2017-11-08T02:14:55.562Z,96673.36
2017-11-08T02:17:21.663Z,96669.89
2017-11-08T02:19:47.731Z,96671.18
2017-11-08T02:22:13.834Z,96664.78
2017-11-08T02:24:39.862Z,96658.45
2017-11-08T02:27:05.995Z,96651.20
2017-11-08T02:29:32.034Z,96651.25
2017-11-08T02:31:58.071Z,96659.50
2017-11-08T02:34:24.135Z,96660.30
2017-11-08T02:36:50.174Z,96665.92
2017-11-08T02:39:16.281Z,96669.03
2017-11-08T02:41:42.373Z,96677.27
2017-11-08T02:44:08.439Z,96674.52
2017-11-08T02:46:34.521Z,96677.69
2017-11-08T02:49:00.576Z,96685.82
2017-11-08T02:51:26.697Z,96686.27
2017-11-08T02:53:52.775Z,96692.78
2017-11-08T02:56:18.860Z,96702.37
2017-11-08T02:58:44.962Z,96708.08
2017-11-08T03:01:11.075Z,96712.27
2017-11-08T03:03:43.218Z,96714.05
2017-11-08T03:06:11.082Z,96719.67
2017-11-08T03:08:37.166Z,96713.48
2017-11-08T03:11:03.314Z,96709.16
2017-11-08T03:13:29.391Z,96711.48
2017-11-08T03:15:55.482Z,96703.35
2017-11-08T03:18:21.530Z,96708.42
2017-11-08T03:20:47.625Z,96705.63
2017-11-08T03:23:13.722Z,96709.23
2017-11-08T03:25:39.818Z,96711.44
2017-11-08T03:28:05.896Z,96713.18
2017-11-08T03:30:31.988Z,96709.20
2017-11-08T03:32:58.119Z,96703.38
2017-11-08T03:35:24.166Z,96705.46
2017-11-08T03:37:50.279Z,96715.73
2017-11-08T03:40:16.489Z,96717.05
2017-11-08T03:42:42.551Z,96722.19
2017-11-08T03:45:08.599Z,96714.89
2017-11-08T03:47:34.672Z,96714.89
2017-11-08T03:50:00.818Z,96717.31
2017-11-08T03:52:26.852Z,96719.77
2017-11-08T03:54:52.983Z,96719.38
2017-11-08T03:57:19.098Z,96710.50
2017-11-08T03:59:45.078Z,96697.90
2017-11-08T04:02:11.157Z,96699.36
2017-11-08T04:04:37.245Z,96710.63
2017-11-08T04:07:03.323Z,96720.11
2017-11-08T04:09:29.443Z,96721.52
2017-11-08T04:11:55.519Z,96716.81
2017-11-08T04:14:22.198Z,96715.50
2017-11-08T04:16:48.718Z,96721.77
2017-11-08T04:19:14.786Z,96718.75
2017-11-08T04:21:40.819Z,96717.68
2017-11-08T04:24:06.943Z,96717.83
2017-11-08T04:26:33.044Z,96717.33
2017-11-08T04:28:59.170Z,96709.68
2017-11-08T04:31:25.266Z,96702.30
2017-11-08T04:33:51.456Z,96700.06
2017-11-08T04:36:17.571Z,96690.66
2017-11-08T04:38:43.681Z,96690.08
2017-11-08T04:41:10.030Z,96697.97
2017-11-08T04:43:36.062Z,96699.67
2017-11-08T04:46:02.107Z,96696.92
2017-11-08T04:48:30.259Z,96693.34
2017-11-08T04:50:56.343Z,96690.64
2017-11-08T04:53:22.686Z,96687.83
2017-11-08T04:55:48.813Z,96691.77
2017-11-08T04:58:14.927Z,96687.16
2017-11-08T05:00:41.071Z,96688.81
2017-11-08T05:03:07.292Z,96685.26
2017-11-08T05:05:33.399Z,96683.95
2017-11-08T05:07:59.557Z,96694.73
2017-11-08T05:10:25.618Z,96704.69
2017-11-08T05:12:51.701Z,96703.08
2017-11-08T05:15:17.845Z,96707.26
2017-11-08T05:17:43.921Z,96712.02
2017-11-08T05:20:10.205Z,96713.03
2017-11-08T05:22:36.744Z,96719.28
2017-11-08T05:25:02.790Z,96721.31
2017-11-08T05:27:28.868Z,96723.31
2017-11-08T05:29:54.919Z,96727.94
2017-11-08T05:32:20.995Z,96736.13
2017-11-08T05:34:47.075Z,96725.16
2017-11-08T05:37:13.370Z,96736.91
2017-11-08T05:39:39.438Z,96739.87
2017-11-08T05:42:05.530Z,96739.00
2017-11-08T05:44:31.743Z,96730.56
2017-11-08T05:46:57.839Z,96742.74
2017-11-08T05:49:23.972Z,96749.84
2017-11-08T05:51:50.457Z,96747.16
2017-11-08T05:54:16.551Z,96753.70
2017-11-08T05:56:42.659Z,96756.08
2017-11-08T05:59:08.770Z,96766.55
2017-11-08T06:01:34.847Z,96771.46
2017-11-08T06:04:01.040Z,96762.37
2017-11-08T06:06:27.116Z,96746.91
2017-11-08T06:08:53.149Z,96744.16
2017-11-08T06:11:19.207Z,96755.11
2017-11-08T06:13:45.287Z,96749.98
2017-11-08T06:16:11.723Z,96729.05
2017-11-08T06:18:37.821Z,96749.55
2017-11-08T06:21:03.906Z,96775.83
2017-11-08T06:23:30.011Z,96773.06
2017-11-08T06:25:56.124Z,96764.70
2017-11-08T06:28:22.565Z,96759.89
2017-11-08T06:30:48.675Z,96769.80
2017-11-08T06:33:14.755Z,96773.41
2017-11-08T06:35:40.787Z,96780.05
2017-11-08T06:38:07.742Z,96774.08
2017-11-08T06:40:34.235Z,96774.34
2017-11-08T06:43:00.254Z,96778.20
2017-11-08T06:45:26.350Z,96781.67
2017-11-08T06:47:52.447Z,96775.97
2017-11-08T06:50:18.563Z,96783.88
2017-11-08T06:52:45.006Z,96789.52
2017-11-08T06:55:11.111Z,96788.44
2017-11-08T06:57:37.195Z,96783.55
2017-11-08T07:00:03.208Z,96789.59
2017-11-08T07:02:29.359Z,96796.72
2017-11-08T07:04:55.814Z,96798.09
2017-11-08T07:07:22.232Z,96805.92
2017-11-08T07:09:48.317Z,96809.98
2017-11-08T07:12:14.823Z,96814.26
2017-11-08T07:14:40.914Z,96811.16
2017-11-08T07:17:08.779Z,96814.42
2017-11-08T07:19:34.955Z,96819.73
2017-11-08T07:22:01.021Z,96819.52
2017-11-08T07:24:27.499Z,96820.46
2017-11-08T07:26:53.593Z,96817.20
2017-11-08T07:29:19.678Z,96809.89
2017-11-08T07:31:45.691Z,96811.80
2017-11-08T07:34:11.758Z,96808.09
2017-11-08T07:36:38.242Z,96806.33
2017-11-08T07:39:04.346Z,96812.31
2017-11-08T07:41:30.430Z,96817.58
2017-11-08T07:43:56.506Z,96818.69
2017-11-08T07:46:22.657Z,96811.48
2017-11-08T07:48:49.066Z,96810.38
2017-11-08T07:51:15.099Z,96809.90
2017-11-08T07:53:41.185Z,96808.03
2017-11-08T07:56:07.654Z,96812.31
2017-11-08T07:58:35.738Z,96811.62
2017-11-08T08:01:01.798Z,96808.52
2017-11-08T08:03:28.301Z,96815.87
2017-11-08T08:05:54.398Z,96824.64
2017-11-08T08:08:20.546Z,96825.23
2017-11-08T08:10:46.979Z,96826.35
2017-11-08T08:13:13.054Z,96828.30
2017-11-08T08:15:39.116Z,96829.65
2017-11-08T08:18:05.572Z,96828.58
2017-11-08T08:20:31.615Z,96828.94
2017-11-08T08:22:57.668Z,96840.81
2017-11-08T08:25:23.774Z,96838.87
2017-11-08T08:27:49.889Z,96835.59
2017-11-08T08:30:16.306Z,96840.08
2017-11-08T08:32:42.391Z,96834.78
2017-11-08T08:35:08.477Z,96838.05
2017-11-08T08:37:35.002Z,96847.69
2017-11-08T08:40:01.094Z,96853.17
2017-11-08T08:42:27.139Z,96849.69
2017-11-08T08:44:53.290Z,96851.06
2017-11-08T08:47:19.391Z,96848.91
2017-11-08T08:49:45.767Z,96851.63
2017-11-08T08:52:11.778Z,96857.39
2017-11-08T08:54:37.815Z,96867.56
2017-11-08T08:57:04.330Z,96876.87
2017-11-08T08:59:30.427Z,96878.28
2017-11-08T09:01:56.499Z,96871.65
2017-11-08T09:04:22.602Z,96864.43
2017-11-08T09:06:48.670Z,96856.31
2017-11-08T09:09:15.174Z,96853.03
2017-11-08T09:11:41.245Z,96845.87
2017-11-08T09:14:07.362Z,96850.16
2017-11-08T09:16:33.452Z,96859.34
2017-11-08T09:18:59.470Z,96861.47
2017-11-08T09:21:25.908Z,96871.22
2017-11-08T09:23:51.954Z,96878.28
2017-11-08T09:26:20.983Z,96874.67
2017-11-08T09:28:47.489Z,96874.41
2017-11-08T09:31:19.648Z,96889.13
2017-11-08T09:33:45.770Z,96895.17
2017-11-08T09:36:14.774Z,96891.44
2017-11-08T09:38:40.867Z,96888.89
2017-11-08T09:41:06.984Z,96876.52
2017-11-08T09:43:33.119Z,96872.61
2017-11-08T09:46:00.513Z,96876.54
2017-11-08T09:48:26.618Z,96878.13
2017-11-08T09:50:52.666Z,96879.23
2017-11-08T09:53:18.762Z,96886.05
2017-11-08T09:55:51.947Z,96886.89
2017-11-08T09:58:18.441Z,96883.16
2017-11-08T10:00:51.001Z,96883.19
2017-11-08T10:03:19.362Z,96881.13
2017-11-08T10:05:45.395Z,96884.63
2017-11-08T10:08:11.472Z,96886.00
2017-11-08T10:10:38.658Z,96893.36
2017-11-08T10:13:09.760Z,96892.31
2017-11-08T10:15:36.243Z,96895.25
2017-11-08T10:18:02.359Z,96900.45
2017-11-08T10:20:28.512Z,96896.81
2017-11-08T10:23:00.499Z,96886.09
2017-11-08T10:25:26.562Z,96887.31
2017-11-08T10:27:56.003Z,96872.68
2017-11-08T10:30:22.089Z,96866.33
2017-11-08T10:32:48.198Z,96871.51
2017-11-08T10:35:14.609Z,96873.45
2017-11-08T10:37:40.722Z,96881.66
2017-11-08T10:40:06.831Z,96866.66
2017-11-08T10:42:32.962Z,96872.75
2017-11-08T10:44:59.056Z,96878.59
2017-11-08T10:47:25.527Z,96883.33
2017-11-08T10:49:54.632Z,96874.81
2017-11-08T10:52:20.800Z,96864.28
2017-11-08T10:54:47.217Z,96876.05
2017-11-08T10:57:13.364Z,96885.80
2017-11-08T10:59:45.581Z,96892.22
2017-11-08T11:02:11.975Z,96896.13
2017-11-08T11:04:38.028Z,96898.56
2017-11-08T11:07:04.122Z,96897.94
2017-11-08T11:09:30.603Z,96891.48
2017-11-08T11:11:56.657Z,96888.57
2017-11-08T11:14:22.767Z,96892.89
2017-11-08T11:16:49.276Z,96880.79
2017-11-08T11:19:20.163Z,96881.78
2017-11-08T11:24:14.382Z,96860.37
2017-11-08T11:26:41.391Z,96865.60
2017-11-08T11:29:07.455Z,96881.03
2017-11-08T11:31:33.957Z,96866.52
2017-11-08T11:34:00.009Z,96871.88
2017-11-08T11:36:26.039Z,96868.09
2017-11-08T11:38:54.366Z,96864.93
2017-11-08T11:41:22.410Z,96862.75
2017-11-08T11:43:48.448Z,96852.42
2017-11-08T11:46:14.526Z,96851.50
2017-11-08T11:48:47.271Z,96860.06
2017-11-08T11:51:13.816Z,96860.99
2017-11-08T11:53:39.856Z,96855.95
2017-11-08T11:56:05.889Z,96850.91
2017-11-08T11:58:31.955Z,96859.06
2017-11-08T12:00:58.059Z,96864.97
2017-11-08T12:03:24.457Z,96874.33
2017-11-08T12:05:50.531Z,96873.63
2017-11-08T12:08:16.610Z,96858.02
2017-11-08T12:10:42.696Z,96858.88
2017-11-08T12:13:08.759Z,96861.20
2017-11-08T12:15:35.320Z,96858.05
2017-11-08T12:18:01.387Z,96863.05
2017-11-08T12:20:28.512Z,96865.86
2017-11-08T12:22:54.630Z,96857.90
2017-11-08T12:25:20.703Z,96854.16
2017-11-08T12:27:46.803Z,96856.66
2017-11-08T12:30:12.960Z,96857.27
2017-11-08T12:32:39.424Z,96857.16
2017-11-08T12:35:05.740Z,96854.64
2017-11-08T12:37:31.819Z,96854.02
2017-11-08T12:39:57.982Z,96851.70
2017-11-08T12:42:24.024Z,96860.02
2017-11-08T12:44:56.428Z,96867.69
2017-11-08T12:47:22.465Z,96868.41
2017-11-08T12:49:48.595Z,96874.70
2017-11-08T12:52:14.715Z,96878.75
2017-11-08T12:54:40.779Z,96883.77
2017-11-08T12:57:06.883Z,96880.34
2017-11-08T12:59:33.380Z,96882.83
2017-11-08T13:01:59.511Z,96880.69
2017-11-08T13:04:25.540Z,96880.19
2017-11-08T13:06:51.988Z,96876.08
2017-11-08T13:09:18.022Z,96874.44
2017-11-08T13:11:44.072Z,96875.53
2017-11-08T13:14:10.584Z,96881.04
2017-11-08T13:16:36.674Z,96880.11
2017-11-08T13:19:02.740Z,96876.23
2017-11-08T13:21:29.198Z,96880.58
2017-11-08T13:23:55.409Z,96884.54
2017-11-08T13:26:21.466Z,96884.73
2017-11-08T13:28:48.048Z,96887.14
2017-11-08T13:31:14.160Z,96879.48
2017-11-08T13:33:40.171Z,96875.96
2017-11-08T13:36:06.535Z,96880.03
2017-11-08T13:38:32.536Z,96882.79
2017-11-08T13:40:58.598Z,96883.91
2017-11-08T13:43:24.743Z,96891.82
2017-11-08T13:45:50.863Z,96897.80
2017-11-08T13:48:17.372Z,96896.45
2017-11-08T13:50:43.459Z,96899.64
2017-11-08T13:53:09.628Z,96903.76
2017-11-08T13:55:36.176Z,96912.88
2017-11-08T13:58:02.301Z,96908.18
2017-11-08T14:00:28.328Z,96911.25
2017-11-08T14:02:54.866Z,96914.34
2017-11-08T14:05:20.995Z,96911.17
2017-11-08T14:07:47.120Z,96906.67
2017-11-08T14:10:13.547Z,96905.34
2017-11-08T14:12:39.637Z,96906.89
2017-11-08T14:15:05.719Z,96899.98
2017-11-08T14:17:32.107Z,96896.95
2017-11-08T14:19:58.198Z,96893.02
2017-11-08T14:22:24.279Z,96895.19
2017-11-08T14:24:50.387Z,96893.95
2017-11-08T14:27:16.458Z,96893.28
2017-11-08T14:29:42.566Z,96889.78
2017-11-08T14:32:11.700Z,96894.11
2017-11-08T14:34:37.728Z,96897.37
2017-11-08T14:37:03.812Z,96896.59
2017-11-08T14:39:29.919Z,96896.28
2017-11-08T14:41:57.797Z,96898.02
2017-11-08T14:44:23.868Z,96898.56
2017-11-08T14:46:49.993Z,96910.27
2017-11-08T14:49:16.080Z,96902.12
2017-11-08T14:51:42.147Z,96905.67
2017-11-08T14:54:08.649Z,96906.86
2017-11-08T14:56:34.727Z,96911.74
2017-11-08T14:59:00.810Z,96915.38
2017-11-08T15:01:27.197Z,96915.47
2017-11-08T15:03:53.266Z,96916.33
2017-11-08T15:06:19.391Z,96924.52
2017-11-08T15:08:45.846Z,96917.39
2017-11-08T15:11:14.818Z,96924.38
2017-11-08T15:16:07.192Z,96933.70
2017-11-08T15:18:33.287Z,96933.59
2017-11-08T15:20:59.325Z,96933.52
2017-11-08T15:23:28.403Z,96938.16
2017-11-08T15:25:54.467Z,96940.02
2017-11-08T15:28:20.598Z,96938.35
2017-11-08T15:36:27.859Z,96952.19
2017-11-08T15:38:53.942Z,96952.16
2017-11-08T15:41:19.992Z,96957.13
2017-11-08T15:43:46.093Z,96947.47
2017-11-08T15:46:13.119Z,96948.68
2017-11-08T15:48:39.588Z,96951.03
2017-11-08T15:51:05.663Z,96953.52
2017-11-08T15:53:31.748Z,96950.62
2017-11-08T15:55:57.863Z,96953.67
2017-11-08T15:58:23.948Z,96956.92
2017-11-08T16:00:50.451Z,96959.91
2017-11-08T16:03:16.578Z,96962.79
2017-11-08T16:05:42.675Z,96960.56
2017-11-08T16:08:08.772Z,96958.55
2017-11-08T16:10:34.852Z,96959.25
2017-11-08T16:13:01.388Z,96967.36
2017-11-08T16:15:27.415Z,96963.05
2017-11-08T16:17:53.587Z,96967.29
2017-11-08T16:20:19.703Z,96972.30
2017-11-08T16:22:45.813Z,96971.41
2017-11-08T16:25:12.333Z,96969.48
2017-11-08T16:27:38.423Z,96966.50
2017-11-08T16:30:04.539Z,96978.39
2017-11-08T16:32:30.644Z,96973.41
2017-11-08T16:34:56.762Z,96974.16
2017-11-08T16:37:23.288Z,96974.26
2017-11-08T16:39:49.359Z,96975.09
2017-11-08T16:42:15.448Z,96974.84
2017-11-08T16:44:41.608Z,96975.53
2017-11-08T16:47:07.806Z,96973.27
2017-11-08T16:49:34.316Z,96978.02
2017-11-08T16:52:00.472Z,96978.93
2017-11-08T16:54:26.574Z,96980.39
2017-11-08T16:56:52.683Z,96975.70
2017-11-08T16:59:18.769Z,96974.34
2017-11-08T17:01:45.395Z,96977.97
2017-11-08T17:04:11.562Z,96985.92
2017-11-08T17:06:37.714Z,96980.23
2017-11-08T17:09:03.795Z,96981.80
2017-11-08T17:11:29.871Z,96988.63
2017-11-08T17:13:56.293Z,96994.66
2017-11-08T17:16:22.368Z,96986.28
2017-11-08T17:18:48.527Z,96980.80
2017-11-08T17:21:14.904Z,96985.58
2017-11-08T17:23:41.043Z,96987.72
2017-11-08T17:26:07.167Z,96991.52
2017-11-08T17:28:33.715Z,96990.45
2017-11-08T17:30:59.779Z,96989.38
2017-11-08T17:33:25.883Z,96991.67
2017-11-08T17:35:52.303Z,97000.05
2017-11-08T17:38:18.371Z,96998.83
2017-11-08T17:40:44.505Z,96996.39
2017-11-08T17:43:10.649Z,96997.91
2017-11-08T17:45:36.800Z,96998.49
2017-11-08T17:48:03.209Z,97003.33
2017-11-08T17:50:29.275Z,97006.65
2017-11-08T17:52:55.413Z,97001.00
2017-11-08T17:55:21.924Z,97007.03
2017-11-08T17:57:47.986Z,97010.55
2017-11-08T18:00:14.139Z,97013.67
2017-11-08T18:02:40.715Z,97010.70
2017-11-08T18:05:06.852Z,97015.63
2017-11-08T18:07:32.948Z,97018.58
2017-11-08T18:09:59.412Z,97014.83
2017-11-08T18:12:25.517Z,97011.16
2017-11-08T18:14:51.657Z,97021.18
2017-11-08T18:17:18.202Z,97018.30
2017-11-08T18:19:44.326Z,97014.72
2017-11-08T18:22:10.434Z,97017.52
2017-11-08T18:24:36.915Z,97016.47
2017-11-08T18:27:03.064Z,97017.89
2017-11-08T18:29:29.185Z,97013.82
2017-11-08T18:31:55.608Z,97023.66
2017-11-08T18:34:21.704Z,97024.07
2017-11-08T18:36:47.874Z,97025.88
2017-11-08T18:39:14.359Z,97024.97
2017-11-08T18:41:40.446Z,97027.06
2017-11-08T18:44:06.582Z,97035.30
2017-11-08T18:46:32.709Z,97032.70
2017-11-08T18:48:58.834Z,97037.05
2017-11-08T18:51:25.370Z,97037.00
2017-11-08T18:53:51.488Z,97037.78
2017-11-08T18:56:17.714Z,97041.83
2017-11-08T18:58:43.873Z,97040.05
2017-11-08T19:01:10.048Z,97034.46
2017-11-08T19:03:36.598Z,97035.09
2017-11-08T19:06:02.743Z,97030.61
2017-11-08T19:08:28.903Z,97039.34
2017-11-08T19:10:55.422Z,97037.48
2017-11-08T19:13:21.496Z,97042.44
2017-11-08T19:15:47.668Z,97040.59
2017-11-08T19:18:14.284Z,97040.16
2017-11-08T19:20:40.457Z,97036.02
2017-11-08T19:23:06.664Z,97038.41
2017-11-08T19:25:33.207Z,97045.52
2017-11-08T19:27:59.438Z,97043.86
2017-11-08T19:30:25.730Z,97045.63
2017-11-08T19:32:52.259Z,97049.38
2017-11-08T19:35:18.517Z,97050.83
2017-11-08T19:37:44.815Z,97045.03
2017-11-08T19:40:11.424Z,97052.53
2017-11-08T19:42:37.724Z,97043.47
2017-11-08T19:45:04.007Z,97052.15
2017-11-08T19:47:30.608Z,97055.56
2017-11-08T19:49:57.334Z,97052.68
2017-11-08T19:52:24.397Z,97050.62
2017-11-08T19:54:51.041Z,97046.48
2017-11-08T19:57:17.999Z,97048.17
2017-11-08T19:59:44.286Z,97046.88
2017-11-08T20:02:11.004Z,97045.75
2017-11-08T20:04:37.288Z,97043.03
2017-11-08T20:07:03.555Z,97041.05
2017-11-08T20:09:30.264Z,97053.34
2017-11-08T20:11:56.561Z,97059.52
2017-11-08T20:14:22.898Z,97057.45
2017-11-08T20:16:49.573Z,97066.37
2017-11-08T20:19:15.913Z,97058.72
2017-11-08T20:21:42.149Z,97051.61
2017-11-08T20:24:08.782Z,97047.38
2017-11-08T20:26:35.123Z,97048.05
2017-11-08T20:29:01.427Z,97052.82
2017-11-08T20:31:28.097Z,97054.67
2017-11-08T20:33:54.389Z,97058.97
2017-11-08T20:36:20.661Z,97057.22
2017-11-08T20:38:47.250Z,97052.09
2017-11-08T20:41:13.539Z,97055.45
2017-11-08T20:43:39.839Z,97063.58
2017-11-08T20:46:06.553Z,97062.89
2017-11-08T20:48:32.777Z,97072.01
2017-11-08T20:50:58.913Z,97073.95
2017-11-08T20:53:25.582Z,97071.86
2017-11-08T20:55:51.806Z,97072.97
2017-11-08T20:58:18.008Z,97078.20
2017-11-08T21:00:44.231Z,97071.42
2017-11-08T21:03:11.270Z,97075.42
2017-11-08T21:05:37.823Z,97068.72
2017-11-08T21:08:03.962Z,97073.63
2017-11-08T21:10:30.168Z,97076.52
2017-11-08T21:12:56.312Z,97077.96
2017-11-08T21:15:22.455Z,97069.88
2017-11-08T21:17:48.979Z,97070.41
2017-11-08T21:20:15.107Z,97071.05
2017-11-08T21:22:41.217Z,97075.23
2017-11-08T21:25:07.653Z,97075.88
2017-11-08T21:27:33.764Z,97079.97
2017-11-08T21:29:59.956Z,97080.88
2017-11-08T21:32:26.448Z,97076.42
2017-11-08T21:34:52.560Z,97087.47
2017-11-08T21:37:18.651Z,97087.70
2017-11-08T21:39:45.133Z,97084.14
2017-11-08T21:42:11.240Z,97086.78
2017-11-08T21:44:37.449Z,97093.50
2017-11-08T21:47:03.552Z,97089.53
2017-11-08T21:49:29.656Z,97086.09
2017-11-08T21:51:56.161Z,97091.84
2017-11-08T21:54:22.399Z,97094.82
2017-11-08T21:56:48.445Z,97083.17
2017-11-08T21:59:14.955Z,97076.41
2017-11-08T22:01:41.050Z,97076.27
2017-11-08T22:04:07.075Z,97084.45
2017-11-08T22:06:33.399Z,97088.83
2017-11-08T22:08:59.469Z,97091.16
2017-11-08T22:11:25.649Z,97095.74
2017-11-08T22:13:51.756Z,97096.45
2017-11-08T22:16:17.836Z,97094.61
2017-11-08T22:18:44.280Z,97101.01
2017-11-08T22:21:10.365Z,97108.73
2017-11-08T22:23:36.425Z,97106.08
2017-11-08T22:26:02.884Z,97102.78
2017-11-08T22:28:28.965Z,97098.90
2017-11-08T22:30:55.048Z,97098.73
2017-11-08T22:33:21.152Z,97108.14
2017-11-08T22:35:47.246Z,97108.48
2017-11-08T22:38:13.684Z,97105.09
2017-11-08T22:40:39.846Z,97116.53
2017-11-08T22:43:05.908Z,97117.18
2017-11-08T22:45:32.057Z,97116.64
2017-11-08T22:47:58.097Z,97115.67
2017-11-08T22:50:24.547Z,97114.42
2017-11-08T22:52:50.619Z,97112.77
2017-11-08T22:55:16.680Z,97109.98
2017-11-08T22:57:43.192Z,97106.98
2017-11-08T23:00:09.316Z,97106.86
2017-11-08T23:02:35.397Z,97111.25
2017-11-08T23:05:01.503Z,97104.39
2017-11-08T23:07:27.608Z,97099.30
2017-11-08T23:09:54.015Z,97101.11
2017-11-08T23:12:20.100Z,97102.33
2017-11-08T23:14:46.194Z,97106.63
2017-11-08T23:17:12.313Z,97105.00
2017-11-08T23:19:38.420Z,97110.47
2017-11-08T23:22:04.880Z,97106.33
2017-11-08T23:24:30.988Z,97111.81
2017-11-08T23:26:57.126Z,97108.09
2017-11-08T23:29:23.239Z,97106.00
2017-11-08T23:31:49.338Z,97104.73
2017-11-08T23:34:15.797Z,97103.92
2017-11-08T23:36:41.902Z,97106.53
2017-11-08T23:39:07.963Z,97106.26
2017-11-08T23:41:34.332Z,97102.22
2017-11-08T23:44:00.392Z,97106.84
2017-11-08T23:46:26.503Z,97107.02
2017-11-08T23:48:52.628Z,97109.20
2017-11-08T23:51:18.675Z,97106.71
2017-11-08T23:53:45.111Z,97105.02
2017-11-08T23:56:11.230Z,97104.62
2017-11-08T23:58:37.329Z,97110.07
